sensor_id;sensor_type;location;lat;lon;timestamp;pressure;altitude;pressure_sealevel;temperature;humidity
73242;BME280;65659;49.234;-2.094;2023-07-22T00:01:16;100610.48;;;17.96;46.35
73242;BME280;65659;49.234;-2.094;2023-07-22T00:03:42;100608.89;;;17.93;46.32
73242;BME280;65659;49.234;-2.094;2023-07-22T00:06:09;100608.61;;;18.16;46.27
73242;BME280;65659;49.234;-2.094;2023-07-22T00:08:33;100605.89;;;17.69;46.26
73242;BME280;65659;49.234;-2.094;2023-07-22T00:10:59;100602.74;;;17.68;46.23
73242;BME280;65659;49.234;-2.094;2023-07-22T00:13:25;100600.88;;;17.87;46.23
73242;BME280;65659;49.234;-2.094;2023-07-22T00:15:51;100602.78;;;18.09;46.22
73242;BME280;65659;49.234;-2.094;2023-07-22T00:18:16;100602.07;;;18.03;46.24
73242;BME280;65659;49.234;-2.094;2023-07-22T00:20:42;100603.70;;;18.02;46.22
73242;BME280;65659;49.234;-2.094;2023-07-22T00:23:08;100598.39;;;18.00;46.24
73242;BME280;65659;49.234;-2.094;2023-07-22T00:25:34;100597.77;;;17.78;46.19
73242;BME280;65659;49.234;-2.094;2023-07-22T00:28:00;100594.58;;;18.02;46.17
73242;BME280;65659;49.234;-2.094;2023-07-22T00:30:25;100592.39;;;17.53;46.18
73242;BME280;65659;49.234;-2.094;2023-07-22T00:32:51;100589.12;;;17.97;46.22
73242;BME280;65659;49.234;-2.094;2023-07-22T00:35:17;100586.90;;;17.97;46.24
73242;BME280;65659;49.234;-2.094;2023-07-22T00:37:43;100583.69;;;17.74;46.18
73242;BME280;65659;49.234;-2.094;2023-07-22T00:40:09;100582.42;;;17.44;46.32
73242;BME280;65659;49.234;-2.094;2023-07-22T00:42:34;100577.68;;;17.93;46.33
73242;BME280;65659;49.234;-2.094;2023-07-22T00:45:00;100570.87;;;17.63;46.39
73242;BME280;65659;49.234;-2.094;2023-07-22T00:47:26;100568.10;;;17.80;46.49
73242;BME280;65659;49.234;-2.094;2023-07-22T00:49:52;100569.61;;;17.80;46.47
73242;BME280;65659;49.234;-2.094;2023-07-22T00:52:18;100567.86;;;17.75;46.57
73242;BME280;65659;49.234;-2.094;2023-07-22T00:54:44;100574.02;;;17.46;46.70
73242;BME280;65659;49.234;-2.094;2023-07-22T00:57:09;100569.32;;;17.65;46.79
73242;BME280;65659;49.234;-2.094;2023-07-22T00:59:35;100568.89;;;17.62;46.88
73242;BME280;65659;49.234;-2.094;2023-07-22T01:02:00;100564.67;;;17.37;46.97
73242;BME280;65659;49.234;-2.094;2023-07-22T01:04:26;100565.23;;;17.58;47.12
73242;BME280;65659;49.234;-2.094;2023-07-22T01:06:52;100562.47;;;17.55;47.22
73242;BME280;65659;49.234;-2.094;2023-07-22T01:09:18;100564.64;;;17.55;47.27
73242;BME280;65659;49.234;-2.094;2023-07-22T01:11:43;100561.34;;;17.55;47.31
73242;BME280;65659;49.234;-2.094;2023-07-22T01:14:09;100558.31;;;17.50;47.43
73242;BME280;65659;49.234;-2.094;2023-07-22T01:16:35;100551.05;;;17.70;47.56
73242;BME280;65659;49.234;-2.094;2023-07-22T01:19:01;100547.74;;;17.47;47.57
73242;BME280;65659;49.234;-2.094;2023-07-22T01:21:27;100545.27;;;17.46;47.60
73242;BME280;65659;49.234;-2.094;2023-07-22T01:23:52;100540.15;;;17.47;47.56
73242;BME280;65659;49.234;-2.094;2023-07-22T01:26:18;100536.11;;;17.77;47.50
73242;BME280;65659;49.234;-2.094;2023-07-22T01:28:43;100536.76;;;17.40;47.43
73242;BME280;65659;49.234;-2.094;2023-07-22T01:31:09;100535.91;;;17.65;47.44
73242;BME280;65659;49.234;-2.094;2023-07-22T01:33:35;100533.53;;;17.42;47.47
73242;BME280;65659;49.234;-2.094;2023-07-22T01:36:01;100528.47;;;17.66;47.48
73242;BME280;65659;49.234;-2.094;2023-07-22T01:38:26;100523.88;;;17.71;47.40
73242;BME280;65659;49.234;-2.094;2023-07-22T01:40:52;100523.44;;;17.85;47.24
73242;BME280;65659;49.234;-2.094;2023-07-22T01:43:18;100524.04;;;17.70;47.15
73242;BME280;65659;49.234;-2.094;2023-07-22T01:45:44;100522.03;;;18.03;47.04
73242;BME280;65659;49.234;-2.094;2023-07-22T01:48:09;100522.44;;;17.84;46.99
73242;BME280;65659;49.234;-2.094;2023-07-22T01:50:35;100518.77;;;18.15;46.89
73242;BME280;65659;49.234;-2.094;2023-07-22T01:53:01;100516.49;;;17.77;46.75
73242;BME280;65659;49.234;-2.094;2023-07-22T01:55:27;100515.97;;;18.36;46.62
73242;BME280;65659;49.234;-2.094;2023-07-22T01:57:54;100518.88;;;18.45;46.53
73242;BME280;65659;49.234;-2.094;2023-07-22T02:00:18;100515.70;;;18.26;46.48
73242;BME280;65659;49.234;-2.094;2023-07-22T02:02:45;100515.46;;;18.12;46.40
73242;BME280;65659;49.234;-2.094;2023-07-22T02:05:10;100516.41;;;18.21;46.36
73242;BME280;65659;49.234;-2.094;2023-07-22T02:07:36;100513.89;;;18.58;46.36
73242;BME280;65659;49.234;-2.094;2023-07-22T02:10:01;100508.61;;;18.33;47.08
73242;BME280;65659;49.234;-2.094;2023-07-22T02:12:27;100516.76;;;18.55;47.21
73242;BME280;65659;49.234;-2.094;2023-07-22T02:14:53;100518.30;;;17.90;47.53
73242;BME280;65659;49.234;-2.094;2023-07-22T02:17:19;100514.62;;;17.83;47.56
73242;BME280;65659;49.234;-2.094;2023-07-22T02:19:44;100512.78;;;17.93;47.20
73242;BME280;65659;49.234;-2.094;2023-07-22T02:22:10;100512.13;;;17.96;46.97
73242;BME280;65659;49.234;-2.094;2023-07-22T02:24:36;100509.34;;;17.98;46.89
73242;BME280;65659;49.234;-2.094;2023-07-22T02:27:02;100510.54;;;17.98;46.98
73242;BME280;65659;49.234;-2.094;2023-07-22T02:29:27;100506.72;;;18.20;47.08
73242;BME280;65659;49.234;-2.094;2023-07-22T02:31:53;100499.34;;;18.01;46.86
73242;BME280;65659;49.234;-2.094;2023-07-22T02:34:19;100502.53;;;17.99;46.89
73242;BME280;65659;49.234;-2.094;2023-07-22T02:36:45;100501.71;;;18.31;46.80
73242;BME280;65659;49.234;-2.094;2023-07-22T02:39:11;100497.04;;;18.32;46.60
73242;BME280;65659;49.234;-2.094;2023-07-22T02:41:37;100493.35;;;18.37;46.46
73242;BME280;65659;49.234;-2.094;2023-07-22T02:44:02;100490.36;;;18.21;46.23
73242;BME280;65659;49.234;-2.094;2023-07-22T02:46:28;100487.92;;;18.02;45.99
73242;BME280;65659;49.234;-2.094;2023-07-22T02:48:54;100484.36;;;18.32;45.78
73242;BME280;65659;49.234;-2.094;2023-07-22T02:51:20;100482.11;;;18.41;45.59
73242;BME280;65659;49.234;-2.094;2023-07-22T02:53:45;100482.77;;;18.45;45.46
73242;BME280;65659;49.234;-2.094;2023-07-22T02:56:11;100481.56;;;18.47;45.37
73242;BME280;65659;49.234;-2.094;2023-07-22T02:58:38;100480.39;;;18.49;45.36
73242;BME280;65659;49.234;-2.094;2023-07-22T03:01:03;100481.31;;;18.54;45.33
73242;BME280;65659;49.234;-2.094;2023-07-22T03:03:28;100478.08;;;18.59;45.31
73242;BME280;65659;49.234;-2.094;2023-07-22T03:05:54;100477.89;;;18.67;45.27
73242;BME280;65659;49.234;-2.094;2023-07-22T03:08:20;100476.65;;;18.66;45.39
73242;BME280;65659;49.234;-2.094;2023-07-22T03:10:46;100477.59;;;18.62;45.68
73242;BME280;65659;49.234;-2.094;2023-07-22T03:13:12;100478.52;;;18.64;45.90
73242;BME280;65659;49.234;-2.094;2023-07-22T03:15:38;100480.04;;;18.60;46.13
73242;BME280;65659;49.234;-2.094;2023-07-22T03:18:03;100485.01;;;18.56;46.45
73242;BME280;65659;49.234;-2.094;2023-07-22T03:20:29;100483.98;;;18.59;46.53
73242;BME280;65659;49.234;-2.094;2023-07-22T03:22:55;100481.61;;;18.57;46.74
73242;BME280;65659;49.234;-2.094;2023-07-22T03:25:21;100481.17;;;18.61;46.81
73242;BME280;65659;49.234;-2.094;2023-07-22T03:27:46;100480.21;;;18.52;47.02
73242;BME280;65659;49.234;-2.094;2023-07-22T03:30:13;100481.49;;;18.61;46.87
73242;BME280;65659;49.234;-2.094;2023-07-22T03:32:38;100480.19;;;18.36;46.96
73242;BME280;65659;49.234;-2.094;2023-07-22T03:35:04;100480.17;;;18.42;46.91
73242;BME280;65659;49.234;-2.094;2023-07-22T03:37:29;100480.32;;;18.66;46.99
73242;BME280;65659;49.234;-2.094;2023-07-22T03:39:55;100480.03;;;18.66;47.08
73242;BME280;65659;49.234;-2.094;2023-07-22T03:42:21;100475.30;;;18.67;47.26
73242;BME280;65659;49.234;-2.094;2023-07-22T03:44:47;100477.77;;;18.71;47.42
73242;BME280;65659;49.234;-2.094;2023-07-22T03:47:13;100477.39;;;18.51;47.62
73242;BME280;65659;49.234;-2.094;2023-07-22T03:49:38;100479.30;;;19.23;47.76
73242;BME280;65659;49.234;-2.094;2023-07-22T03:52:05;100475.64;;;18.54;47.88
73242;BME280;65659;49.234;-2.094;2023-07-22T03:54:30;100476.58;;;18.73;48.00
73242;BME280;65659;49.234;-2.094;2023-07-22T03:56:55;100476.77;;;18.72;47.98
73242;BME280;65659;49.234;-2.094;2023-07-22T03:59:21;100475.77;;;18.80;47.90
73242;BME280;65659;49.234;-2.094;2023-07-22T04:01:47;100476.94;;;18.79;47.92
73242;BME280;65659;49.234;-2.094;2023-07-22T04:04:13;100479.59;;;18.84;47.87
73242;BME280;65659;49.234;-2.094;2023-07-22T04:06:39;100476.93;;;18.60;47.94
73242;BME280;65659;49.234;-2.094;2023-07-22T04:09:04;100480.39;;;18.80;48.20
73242;BME280;65659;49.234;-2.094;2023-07-22T04:11:30;100478.35;;;18.76;48.36
73242;BME280;65659;49.234;-2.094;2023-07-22T04:13:56;100479.63;;;18.76;48.50
73242;BME280;65659;49.234;-2.094;2023-07-22T04:16:22;100475.93;;;18.45;48.87
73242;BME280;65659;49.234;-2.094;2023-07-22T04:18:47;100476.09;;;18.76;48.87
73242;BME280;65659;49.234;-2.094;2023-07-22T04:21:13;100472.68;;;18.76;49.07
73242;BME280;65659;49.234;-2.094;2023-07-22T04:23:39;100474.73;;;18.62;49.65
73242;BME280;65659;49.234;-2.094;2023-07-22T04:26:05;100475.48;;;18.43;50.32
73242;BME280;65659;49.234;-2.094;2023-07-22T04:28:30;100474.61;;;18.57;50.42
73242;BME280;65659;49.234;-2.094;2023-07-22T04:30:57;100467.50;;;18.12;50.90
73242;BME280;65659;49.234;-2.094;2023-07-22T04:33:21;100476.48;;;18.06;50.97
73242;BME280;65659;49.234;-2.094;2023-07-22T04:35:47;100471.00;;;18.49;51.10
73242;BME280;65659;49.234;-2.094;2023-07-22T04:38:12;100470.55;;;18.29;51.00
73242;BME280;65659;49.234;-2.094;2023-07-22T04:40:42;100464.19;;;17.90;51.37
73242;BME280;65659;49.234;-2.094;2023-07-22T04:43:04;100462.91;;;18.49;51.12
73242;BME280;65659;49.234;-2.094;2023-07-22T04:45:30;100462.26;;;18.14;51.20
73242;BME280;65659;49.234;-2.094;2023-07-22T04:47:56;100462.03;;;18.16;51.10
73242;BME280;65659;49.234;-2.094;2023-07-22T04:50:21;100459.50;;;18.33;51.23
73242;BME280;65659;49.234;-2.094;2023-07-22T04:52:47;100462.02;;;17.85;51.12
73242;BME280;65659;49.234;-2.094;2023-07-22T04:55:13;100459.35;;;17.92;50.94
73242;BME280;65659;49.234;-2.094;2023-07-22T04:57:39;100461.11;;;18.31;51.06
73242;BME280;65659;49.234;-2.094;2023-07-22T05:00:06;100460.79;;;18.30;51.06
73242;BME280;65659;49.234;-2.094;2023-07-22T05:02:30;100453.67;;;18.06;51.07
73242;BME280;65659;49.234;-2.094;2023-07-22T05:04:56;100454.79;;;18.31;51.03
73242;BME280;65659;49.234;-2.094;2023-07-22T05:07:21;100452.20;;;18.38;50.87
73242;BME280;65659;49.234;-2.094;2023-07-22T05:09:47;100449.56;;;17.97;50.84
73242;BME280;65659;49.234;-2.094;2023-07-22T05:12:13;100451.13;;;18.19;50.75
73242;BME280;65659;49.234;-2.094;2023-07-22T05:14:38;100453.39;;;18.03;50.65
73242;BME280;65659;49.234;-2.094;2023-07-22T05:17:04;100455.85;;;18.32;50.58
73242;BME280;65659;49.234;-2.094;2023-07-22T05:19:30;100454.77;;;18.07;50.53
73242;BME280;65659;49.234;-2.094;2023-07-22T05:21:56;100453.75;;;18.33;50.49
73242;BME280;65659;49.234;-2.094;2023-07-22T05:24:21;100455.67;;;18.15;50.42
73242;BME280;65659;49.234;-2.094;2023-07-22T05:26:47;100456.88;;;18.15;50.52
73242;BME280;65659;49.234;-2.094;2023-07-22T05:29:13;100454.61;;;18.29;50.45
73242;BME280;65659;49.234;-2.094;2023-07-22T05:31:38;100456.41;;;18.31;50.66
73242;BME280;65659;49.234;-2.094;2023-07-22T05:34:04;100451.52;;;18.39;50.94
73242;BME280;65659;49.234;-2.094;2023-07-22T05:36:30;100452.88;;;18.38;51.22
73242;BME280;65659;49.234;-2.094;2023-07-22T05:38:57;100451.92;;;18.41;51.39
73242;BME280;65659;49.234;-2.094;2023-07-22T05:41:22;100454.92;;;18.48;51.40
73242;BME280;65659;49.234;-2.094;2023-07-22T05:43:47;100450.33;;;18.49;51.42
73242;BME280;65659;49.234;-2.094;2023-07-22T05:46:13;100451.71;;;18.46;51.38
73242;BME280;65659;49.234;-2.094;2023-07-22T05:48:39;100450.15;;;18.46;51.35
73242;BME280;65659;49.234;-2.094;2023-07-22T05:51:05;100447.71;;;18.58;51.17
73242;BME280;65659;49.234;-2.094;2023-07-22T05:53:31;100446.39;;;18.55;51.27
73242;BME280;65659;49.234;-2.094;2023-07-22T05:55:56;100445.19;;;18.65;51.17
73242;BME280;65659;49.234;-2.094;2023-07-22T05:58:22;100445.87;;;18.71;51.08
73242;BME280;65659;49.234;-2.094;2023-07-22T06:00:48;100446.70;;;18.69;51.10
73242;BME280;65659;49.234;-2.094;2023-07-22T06:03:14;100448.95;;;18.80;51.06
73242;BME280;65659;49.234;-2.094;2023-07-22T06:05:39;100450.19;;;18.82;51.07
73242;BME280;65659;49.234;-2.094;2023-07-22T06:08:05;100446.41;;;18.91;50.92
73242;BME280;65659;49.234;-2.094;2023-07-22T06:10:32;100452.10;;;18.62;50.96
73242;BME280;65659;49.234;-2.094;2023-07-22T06:12:56;100453.75;;;18.93;50.93
73242;BME280;65659;49.234;-2.094;2023-07-22T06:15:22;100449.50;;;19.28;50.85
73242;BME280;65659;49.234;-2.094;2023-07-22T06:17:47;100443.31;;;19.19;50.71
73242;BME280;65659;49.234;-2.094;2023-07-22T06:20:13;100450.11;;;19.17;50.59
73242;BME280;65659;49.234;-2.094;2023-07-22T06:22:39;100446.42;;;19.21;50.20
73242;BME280;65659;49.234;-2.094;2023-07-22T06:25:06;100455.14;;;18.80;50.37
73242;BME280;65659;49.234;-2.094;2023-07-22T06:27:30;100453.73;;;18.85;50.18
73242;BME280;65659;49.234;-2.094;2023-07-22T06:29:56;100450.26;;;18.98;49.93
73242;BME280;65659;49.234;-2.094;2023-07-22T06:32:22;100450.67;;;19.28;49.73
73242;BME280;65659;49.234;-2.094;2023-07-22T06:34:48;100446.10;;;19.07;49.67
73242;BME280;65659;49.234;-2.094;2023-07-22T06:37:14;100447.70;;;19.33;49.24
73242;BME280;65659;49.234;-2.094;2023-07-22T06:39:39;100444.84;;;19.06;48.92
73242;BME280;65659;49.234;-2.094;2023-07-22T06:42:05;100446.08;;;19.09;48.87
73242;BME280;65659;49.234;-2.094;2023-07-22T06:44:32;100445.07;;;19.04;48.85
73242;BME280;65659;49.234;-2.094;2023-07-22T06:46:57;100448.06;;;19.19;48.71
73242;BME280;65659;49.234;-2.094;2023-07-22T06:49:23;100443.32;;;19.24;48.53
73242;BME280;65659;49.234;-2.094;2023-07-22T06:51:48;100440.80;;;19.56;47.83
73242;BME280;65659;49.234;-2.094;2023-07-22T06:54:14;100435.48;;;19.30;47.36
73242;BME280;65659;49.234;-2.094;2023-07-22T06:56:40;100434.84;;;19.12;47.25
73242;BME280;65659;49.234;-2.094;2023-07-22T06:59:06;100429.43;;;19.48;46.96
73242;BME280;65659;49.234;-2.094;2023-07-22T07:01:31;100423.03;;;19.63;46.61
73242;BME280;65659;49.234;-2.094;2023-07-22T07:03:57;100428.21;;;19.68;46.54
73242;BME280;65659;49.234;-2.094;2023-07-22T07:06:23;100425.25;;;19.59;46.17
73242;BME280;65659;49.234;-2.094;2023-07-22T07:08:49;100427.28;;;19.54;46.29
73242;BME280;65659;49.234;-2.094;2023-07-22T07:11:14;100427.26;;;19.80;46.44
73242;BME280;65659;49.234;-2.094;2023-07-22T07:13:40;100428.16;;;19.65;46.42
73242;BME280;65659;49.234;-2.094;2023-07-22T07:16:21;100430.87;;;19.83;46.32
73242;BME280;65659;49.234;-2.094;2023-07-22T07:18:31;100425.44;;;19.62;46.35
73242;BME280;65659;49.234;-2.094;2023-07-22T07:20:57;100427.44;;;19.65;46.33
73242;BME280;65659;49.234;-2.094;2023-07-22T07:23:23;100431.70;;;20.10;46.66
73242;BME280;65659;49.234;-2.094;2023-07-22T07:25:49;100425.53;;;19.75;46.55
73242;BME280;65659;49.234;-2.094;2023-07-22T07:28:14;100430.40;;;19.88;46.19
73242;BME280;65659;49.234;-2.094;2023-07-22T07:30:40;100424.96;;;19.59;46.40
73242;BME280;65659;49.234;-2.094;2023-07-22T07:33:11;100425.01;;;19.60;46.20
73242;BME280;65659;49.234;-2.094;2023-07-22T07:35:31;100423.11;;;19.66;46.24
73242;BME280;65659;49.234;-2.094;2023-07-22T07:37:57;100422.21;;;19.60;46.05
73242;BME280;65659;49.234;-2.094;2023-07-22T07:40:23;100419.01;;;19.81;46.25
73242;BME280;65659;49.234;-2.094;2023-07-22T07:42:49;100412.46;;;20.01;46.05
73242;BME280;65659;49.234;-2.094;2023-07-22T07:45:15;100410.38;;;20.11;45.79
73242;BME280;65659;49.234;-2.094;2023-07-22T07:47:40;100402.72;;;20.06;45.68
73242;BME280;65659;49.234;-2.094;2023-07-22T07:50:07;100405.68;;;20.27;45.48
73242;BME280;65659;49.234;-2.094;2023-07-22T07:52:31;100407.67;;;20.26;45.59
73242;BME280;65659;49.234;-2.094;2023-07-22T07:54:57;100405.81;;;20.25;45.30
73242;BME280;65659;49.234;-2.094;2023-07-22T07:57:23;100406.31;;;20.36;45.12
73242;BME280;65659;49.234;-2.094;2023-07-22T07:59:48;100411.90;;;20.54;45.17
73242;BME280;65659;49.234;-2.094;2023-07-22T08:02:14;100413.57;;;20.32;44.96
73242;BME280;65659;49.234;-2.094;2023-07-22T08:04:40;100413.71;;;20.52;45.31
73242;BME280;65659;49.234;-2.094;2023-07-22T08:07:06;100411.12;;;20.10;45.27
73242;BME280;65659;49.234;-2.094;2023-07-22T08:09:31;100412.44;;;20.49;45.19
73242;BME280;65659;49.234;-2.094;2023-07-22T08:11:57;100415.17;;;20.29;45.13
73242;BME280;65659;49.234;-2.094;2023-07-22T08:14:22;100413.99;;;20.64;44.98
73242;BME280;65659;49.234;-2.094;2023-07-22T08:16:48;100410.48;;;20.36;44.85
73242;BME280;65659;49.234;-2.094;2023-07-22T08:19:14;100408.07;;;20.43;44.66
73242;BME280;65659;49.234;-2.094;2023-07-22T08:21:39;100404.48;;;20.48;44.98
73242;BME280;65659;49.234;-2.094;2023-07-22T08:24:05;100410.46;;;20.44;44.97
73242;BME280;65659;49.234;-2.094;2023-07-22T08:26:31;100411.38;;;20.50;44.76
73242;BME280;65659;49.234;-2.094;2023-07-22T08:28:57;100395.42;;;20.61;44.71
73242;BME280;65659;49.234;-2.094;2023-07-22T08:31:22;100401.39;;;20.81;44.96
73242;BME280;65659;49.234;-2.094;2023-07-22T08:33:49;100387.51;;;21.26;44.47
73242;BME280;65659;49.234;-2.094;2023-07-22T08:36:14;100391.90;;;20.73;44.84
73242;BME280;65659;49.234;-2.094;2023-07-22T08:38:40;100391.61;;;20.65;44.43
73242;BME280;65659;49.234;-2.094;2023-07-22T08:41:05;100396.16;;;20.90;44.03
73242;BME280;65659;49.234;-2.094;2023-07-22T08:43:34;100392.73;;;21.01;44.27
73242;BME280;65659;49.234;-2.094;2023-07-22T08:46:00;100390.81;;;21.05;44.24
73242;BME280;65659;49.234;-2.094;2023-07-22T08:48:29;100390.76;;;21.26;43.83
73242;BME280;65659;49.234;-2.094;2023-07-22T08:50:52;100399.85;;;21.29;43.85
73242;BME280;65659;49.234;-2.094;2023-07-22T08:53:13;100400.47;;;21.25;44.14
73242;BME280;65659;49.234;-2.094;2023-07-22T08:55:44;100395.69;;;21.20;44.43
73242;BME280;65659;49.234;-2.094;2023-07-22T08:58:04;100400.55;;;21.33;44.28
73242;BME280;65659;49.234;-2.094;2023-07-22T09:00:36;100401.41;;;21.44;44.28
73242;BME280;65659;49.234;-2.094;2023-07-22T09:02:56;100404.28;;;21.58;43.92
73242;BME280;65659;49.234;-2.094;2023-07-22T09:05:21;100406.22;;;21.60;43.63
73242;BME280;65659;49.234;-2.094;2023-07-22T09:07:48;100404.92;;;21.52;43.63
73242;BME280;65659;49.234;-2.094;2023-07-22T09:10:15;100392.90;;;21.20;43.48
73242;BME280;65659;49.234;-2.094;2023-07-22T09:12:43;100395.96;;;21.54;43.18
73242;BME280;65659;49.234;-2.094;2023-07-22T09:15:07;100389.62;;;21.37;43.10
73242;BME280;65659;49.234;-2.094;2023-07-22T09:17:30;100391.22;;;21.17;43.42
73242;BME280;65659;49.234;-2.094;2023-07-22T09:19:55;100392.64;;;21.43;43.78
73242;BME280;65659;49.234;-2.094;2023-07-22T09:22:25;100384.00;;;21.44;43.66
73242;BME280;65659;49.234;-2.094;2023-07-22T09:24:46;100392.40;;;21.48;43.58
73242;BME280;65659;49.234;-2.094;2023-07-22T09:27:12;100385.04;;;21.35;43.49
73242;BME280;65659;49.234;-2.094;2023-07-22T09:29:39;100390.24;;;21.35;43.38
73242;BME280;65659;49.234;-2.094;2023-07-22T09:32:04;100380.50;;;21.14;43.68
73242;BME280;65659;49.234;-2.094;2023-07-22T09:34:29;100378.03;;;21.23;43.83
73242;BME280;65659;49.234;-2.094;2023-07-22T09:36:56;100379.03;;;21.28;43.37
73242;BME280;65659;49.234;-2.094;2023-07-22T09:39:20;100378.23;;;21.56;42.93
73242;BME280;65659;49.234;-2.094;2023-07-22T09:41:46;100383.66;;;21.48;43.03
73242;BME280;65659;49.234;-2.094;2023-07-22T09:44:12;100379.94;;;21.71;42.88
73242;BME280;65659;49.234;-2.094;2023-07-22T09:46:43;100381.71;;;22.26;42.37
73242;BME280;65659;49.234;-2.094;2023-07-22T09:49:03;100376.70;;;22.29;41.78
73242;BME280;65659;49.234;-2.094;2023-07-22T09:51:33;100388.20;;;21.84;41.72
73242;BME280;65659;49.234;-2.094;2023-07-22T09:53:59;100379.62;;;22.02;41.72
73242;BME280;65659;49.234;-2.094;2023-07-22T09:56:19;100383.32;;;22.11;41.53
73242;BME280;65659;49.234;-2.094;2023-07-22T09:58:46;100388.43;;;22.28;40.93
73242;BME280;65659;49.234;-2.094;2023-07-22T10:01:12;100390.72;;;22.21;41.00
73242;BME280;65659;49.234;-2.094;2023-07-22T10:03:38;100388.89;;;22.49;40.66
73242;BME280;65659;49.234;-2.094;2023-07-22T10:06:03;100387.24;;;22.48;40.49
73242;BME280;65659;49.234;-2.094;2023-07-22T10:08:30;100389.69;;;22.11;40.26
73242;BME280;65659;49.234;-2.094;2023-07-22T10:10:55;100388.12;;;22.25;40.47
73242;BME280;65659;49.234;-2.094;2023-07-22T10:13:19;100383.85;;;22.68;40.26
73242;BME280;65659;49.234;-2.094;2023-07-22T10:15:45;100387.59;;;22.70;40.14
73242;BME280;65659;49.234;-2.094;2023-07-22T10:18:11;100386.53;;;22.39;40.22
73242;BME280;65659;49.234;-2.094;2023-07-22T10:20:37;100397.53;;;22.69;39.62
73242;BME280;65659;49.234;-2.094;2023-07-22T10:23:02;100392.33;;;22.62;39.98
73242;BME280;65659;49.234;-2.094;2023-07-22T10:25:28;100390.12;;;23.03;40.02
73242;BME280;65659;49.234;-2.094;2023-07-22T10:27:54;100388.77;;;22.62;40.32
73242;BME280;65659;49.234;-2.094;2023-07-22T10:30:19;100382.33;;;22.69;39.90
73242;BME280;65659;49.234;-2.094;2023-07-22T10:32:46;100386.64;;;22.98;39.78
73242;BME280;65659;49.234;-2.094;2023-07-22T10:35:11;100389.57;;;22.66;39.61
73242;BME280;65659;49.234;-2.094;2023-07-22T10:37:36;100394.55;;;22.77;39.30
73242;BME280;65659;49.234;-2.094;2023-07-22T10:42:26;100385.77;;;22.84;39.86
73242;BME280;65659;49.234;-2.094;2023-07-22T10:44:52;100376.65;;;23.10;38.58
73242;BME280;65659;49.234;-2.094;2023-07-22T10:47:31;100374.47;;;23.02;38.82
73242;BME280;65659;49.234;-2.094;2023-07-22T10:49:45;100373.36;;;22.74;39.44
73242;BME280;65659;49.234;-2.094;2023-07-22T10:52:11;100372.40;;;23.01;38.51
73242;BME280;65659;49.234;-2.094;2023-07-22T10:54:34;100370.47;;;22.83;38.12
73242;BME280;65659;49.234;-2.094;2023-07-22T10:57:03;100365.79;;;23.16;37.45
73242;BME280;65659;49.234;-2.094;2023-07-22T10:59:26;100365.92;;;23.16;38.10
73242;BME280;65659;49.234;-2.094;2023-07-22T11:01:50;100359.32;;;23.38;37.98
73242;BME280;65659;49.234;-2.094;2023-07-22T11:04:23;100356.59;;;23.38;38.11
73242;BME280;65659;49.234;-2.094;2023-07-22T11:06:52;100356.51;;;23.57;37.74
73242;BME280;65659;49.234;-2.094;2023-07-22T11:09:07;100348.65;;;23.93;37.11
73242;BME280;65659;49.234;-2.094;2023-07-22T11:11:36;100343.17;;;24.05;36.71
73242;BME280;65659;49.234;-2.094;2023-07-22T11:16:28;100343.58;;;23.95;36.47
73242;BME280;65659;49.234;-2.094;2023-07-22T11:18:49;100338.73;;;23.59;37.09
73242;BME280;65659;49.234;-2.094;2023-07-22T11:21:15;100340.67;;;23.60;37.52
73242;BME280;65659;49.234;-2.094;2023-07-22T11:23:40;100340.87;;;23.59;37.05
73242;BME280;65659;49.234;-2.094;2023-07-22T11:26:07;100327.70;;;23.84;36.85
73242;BME280;65659;49.234;-2.094;2023-07-22T11:28:32;100330.23;;;24.44;37.17
73242;BME280;65659;49.234;-2.094;2023-07-22T11:30:59;100325.44;;;24.39;36.68
73242;BME280;65659;49.234;-2.094;2023-07-22T11:33:23;100334.63;;;24.79;36.36
73242;BME280;65659;49.234;-2.094;2023-07-22T11:35:48;100321.50;;;24.70;36.04
73242;BME280;65659;49.234;-2.094;2023-07-22T11:38:14;100320.93;;;24.71;35.69
73242;BME280;65659;49.234;-2.094;2023-07-22T11:40:39;100320.62;;;24.86;35.56
73242;BME280;65659;49.234;-2.094;2023-07-22T11:43:05;100309.67;;;24.81;35.44
73242;BME280;65659;49.234;-2.094;2023-07-22T11:45:31;100307.54;;;24.92;35.12
73242;BME280;65659;49.234;-2.094;2023-07-22T11:47:56;100297.85;;;25.06;34.69
73242;BME280;65659;49.234;-2.094;2023-07-22T11:50:31;100307.28;;;24.97;34.51
73242;BME280;65659;49.234;-2.094;2023-07-22T11:52:50;100307.27;;;25.16;34.27
73242;BME280;65659;49.234;-2.094;2023-07-22T11:55:12;100302.28;;;25.14;34.01
73242;BME280;65659;49.234;-2.094;2023-07-22T11:57:40;100295.04;;;25.11;33.55
73242;BME280;65659;49.234;-2.094;2023-07-22T12:00:08;100292.97;;;25.03;33.39
73242;BME280;65659;49.234;-2.094;2023-07-22T12:02:29;100287.17;;;25.20;34.00
73242;BME280;65659;49.234;-2.094;2023-07-22T12:04:57;100293.71;;;25.48;33.25
73242;BME280;65659;49.234;-2.094;2023-07-22T12:07:23;100284.44;;;25.47;33.60
73242;BME280;65659;49.234;-2.094;2023-07-22T12:09:48;100279.47;;;25.12;33.64
73242;BME280;65659;49.234;-2.094;2023-07-22T12:12:12;100283.53;;;25.09;33.24
73242;BME280;65659;49.234;-2.094;2023-07-22T12:14:37;100274.63;;;25.38;32.98
73242;BME280;65659;49.234;-2.094;2023-07-22T12:17:07;100276.52;;;25.23;33.36
73242;BME280;65659;49.234;-2.094;2023-07-22T12:19:29;100270.70;;;24.79;33.37
73242;BME280;65659;49.234;-2.094;2023-07-22T12:21:54;100268.23;;;25.06;33.30
73242;BME280;65659;49.234;-2.094;2023-07-22T12:24:19;100265.68;;;25.26;32.95
73242;BME280;65659;49.234;-2.094;2023-07-22T12:26:45;100263.48;;;25.13;33.64
73242;BME280;65659;49.234;-2.094;2023-07-22T12:29:10;100265.61;;;25.16;33.20
73242;BME280;65659;49.234;-2.094;2023-07-22T12:31:36;100257.62;;;25.41;33.41
73242;BME280;65659;49.234;-2.094;2023-07-22T12:34:02;100265.40;;;25.86;33.52
73242;BME280;65659;49.234;-2.094;2023-07-22T12:36:27;100256.75;;;25.71;32.51